Time;durP1;ratioP1;P1;durP2;ratioP2;P2;SDS_P1;SDS_P2;PMS_P1;PMS_P2;Temp;Humidity;BMP_temperature;BMP_pressure;BME280_temperature;BME280_humidity;BME280_pressure;Samples;Min_cycle;Max_cycle;Signal;HPM_P1;HPM_P2
2023/08/15 00:01:20;;;;;;;6.00;3.90;;;;;;;17.99;100.00;100787.61;1473443;87;21468;-89
2023/08/15 00:03:46;;;;;;;6.40;4.43;;;;;;;17.94;100.00;100790.02;1479892;87;21440;-90
2023/08/15 00:06:14;;;;;;;6.43;3.93;;;;;;;17.86;100.00;100788.77;1471059;87;21486;-87
2023/08/15 00:08:40;;;;;;;7.77;5.00;;;;;;;17.83;100.00;100785.13;1472012;87;21353;-89
2023/08/15 00:11:06;;;;;;;7.00;4.70;;;;;;;17.81;100.00;100789.86;1461922;88;21522;-88
2023/08/15 00:13:32;;;;;;;10.50;4.63;;;;;;;17.79;100.00;100782.52;1475277;87;21368;-88
2023/08/15 00:15:58;;;;;;;7.70;4.80;;;;;;;17.81;100.00;100788.02;1448584;88;21545;-89
2023/08/15 00:18:25;;;;;;;6.07;4.70;;;;;;;17.80;100.00;100786.84;1470481;88;22263;-87
2023/08/15 00:20:51;;;;;;;8.73;4.83;;;;;;;17.74;100.00;100775.52;1469943;88;21331;-88
2023/08/15 00:23:17;;;;;;;9.47;4.87;;;;;;;17.72;100.00;100784.23;1476618;87;21509;-87
2023/08/15 00:25:43;;;;;;;11.97;5.07;;;;;;;17.72;100.00;100788.24;1473978;87;21353;-88
2023/08/15 00:28:10;;;;;;;9.43;5.30;;;;;;;17.73;100.00;100780.55;1474469;87;22359;-85
2023/08/15 00:30:36;;;;;;;7.67;4.93;;;;;;;17.71;100.00;100778.05;1432019;88;21361;-86
2023/08/15 00:33:03;;;;;;;6.43;5.60;;;;;;;17.69;100.00;100773.38;1473047;87;21397;-85
2023/08/15 00:35:29;;;;;;;10.77;6.33;;;;;;;17.68;100.00;100779.77;1469532;87;21302;-86
2023/08/15 00:37:55;;;;;;;7.70;5.70;;;;;;;17.68;100.00;100767.72;1472546;87;21339;-85
2023/08/15 00:40:22;;;;;;;11.63;6.20;;;;;;;17.67;100.00;100765.24;1477621;87;21463;-87
2023/08/15 00:42:48;;;;;;;8.13;6.03;;;;;;;17.69;100.00;100767.20;1466951;87;22292;-86
2023/08/15 00:45:14;;;;;;;9.20;6.03;;;;;;;17.72;100.00;100764.16;1413806;90;21577;-86
2023/08/15 00:47:41;;;;;;;8.80;6.30;;;;;;;17.74;100.00;100768.30;1438737;90;22508;-86
2023/08/15 00:50:09;;;;;;;11.67;5.77;;;;;;;17.75;100.00;100770.47;1466534;88;21361;-85
2023/08/15 00:52:36;;;;;;;8.97;6.37;;;;;;;17.70;100.00;100768.88;1472703;88;21383;-85
2023/08/15 00:55:04;;;;;;;11.67;6.77;;;;;;;17.66;100.00;100776.95;1472428;87;21515;-86
2023/08/15 00:57:30;;;;;;;9.83;6.13;;;;;;;17.68;100.00;100770.91;1472220;87;21434;-85
2023/08/15 00:59:57;;;;;;;6.97;5.93;;;;;;;17.67;100.00;100771.42;1471053;87;21412;-85
2023/08/15 01:02:23;;;;;;;7.23;6.07;;;;;;;17.64;100.00;100772.30;1474629;87;21619;-86
2023/08/15 01:04:50;;;;;;;8.80;5.80;;;;;;;17.60;100.00;100763.80;1474128;87;21287;-86
2023/08/15 01:07:17;;;;;;;8.57;5.80;;;;;;;17.57;100.00;100769.00;1475525;87;21546;-85
2023/08/15 01:09:45;;;;;;;10.03;5.93;;;;;;;17.56;100.00;100766.53;1476164;87;21419;-85
2023/08/15 01:12:29;;;;;;;7.60;5.77;;;;;;;17.55;100.00;100771.06;1462899;88;21486;-85
2023/08/15 01:15:03;;;;;;;8.73;6.83;;;;;;;17.57;100.00;100770.86;1476810;87;21540;-87
2023/08/15 01:17:59;;;;;;;10.23;5.73;;;;;;;17.60;100.00;100773.98;1476488;87;22287;-86
2023/08/15 01:20:30;;;;;;;10.53;5.77;;;;;;;17.63;100.00;100773.30;1472038;88;21449;-86
2023/08/15 01:23:01;;;;;;;16.90;6.30;;;;;;;17.63;100.00;100770.11;1477394;87;21479;-86
2023/08/15 01:25:30;;;;;;;12.00;7.80;;;;;;;17.62;100.00;100779.17;1476083;87;21368;-88
2023/08/15 01:27:56;;;;;;;8.13;6.00;;;;;;;17.62;100.00;100772.99;1483010;88;22372;-87
2023/08/15 01:30:24;;;;;;;8.33;6.00;;;;;;;17.62;100.00;100779.69;1451038;88;21599;-89
2023/08/15 01:33:31;;;;;;;11.23;5.87;;;;;;;17.64;100.00;100776.32;1477216;87;21561;-87
2023/08/15 01:36:03;;;;;;;9.83;6.63;;;;;;;17.63;100.00;100773.30;1453845;88;21463;-88
2023/08/15 01:38:58;;;;;;;7.77;6.20;;;;;;;17.56;100.00;100764.68;1470338;88;21456;-88
2023/08/15 01:41:25;;;;;;;9.03;6.80;;;;;;;17.53;100.00;100773.08;1446245;88;21384;-89
2023/08/15 01:43:53;;;;;;;9.93;6.57;;;;;;;17.47;100.00;100772.48;1448945;89;21531;-89
2023/08/15 01:46:20;;;;;;;10.50;7.07;;;;;;;17.44;100.00;100768.84;1451100;89;21450;-89
2023/08/15 01:48:46;;;;;;;8.57;6.43;;;;;;;17.44;100.00;100770.18;1450847;89;21347;-88
2023/08/15 01:51:12;;;;;;;11.73;6.17;;;;;;;17.42;100.00;100768.19;1442845;88;21359;-88
2023/08/15 01:53:39;;;;;;;17.27;6.30;;;;;;;17.39;100.00;100764.54;1455161;88;22254;-87
2023/08/15 01:56:06;;;;;;;8.27;5.67;;;;;;;17.41;100.00;100765.71;1472494;88;21368;-89
2023/08/15 01:58:32;;;;;;;6.13;5.40;;;;;;;17.43;100.00;100760.47;1458555;88;22953;-87
2023/08/15 02:01:00;;;;;;;8.33;6.30;;;;;;;17.46;100.00;100764.62;1453097;89;21488;-87
2023/08/15 02:03:27;;;;;;;7.00;6.10;;;;;;;17.47;100.00;100766.30;1444375;90;21596;-88
2023/08/15 02:05:53;;;;;;;8.13;5.67;;;;;;;17.45;100.00;100760.30;1446957;90;21377;-87
2023/08/15 02:08:20;;;;;;;10.90;6.27;;;;;;;17.44;100.00;100764.83;1449978;89;21884;-87
2023/08/15 02:10:46;;;;;;;15.37;7.03;;;;;;;17.43;100.00;100763.14;1447283;90;21347;-87
2023/08/15 02:13:13;;;;;;;7.73;5.10;;;;;;;17.43;100.00;100765.83;1436754;90;21392;-87
2023/08/15 02:15:39;;;;;;;9.03;5.20;;;;;;;17.42;100.00;100764.69;1433588;90;21509;-87
2023/08/15 02:18:06;;;;;;;8.07;5.57;;;;;;;17.32;100.00;100754.23;1449312;90;21502;-86
2023/08/15 02:20:33;;;;;;;10.13;6.23;;;;;;;17.29;100.00;100758.62;1454915;89;21404;-88
2023/08/15 02:22:59;;;;;;;10.87;5.40;;;;;;;17.28;100.00;100756.45;1448995;89;21341;-89
2023/08/15 02:25:25;;;;;;;7.73;5.70;;;;;;;17.30;100.00;100750.94;1450488;90;21545;-86
2023/08/15 02:27:51;;;;;;;6.17;4.37;;;;;;;17.29;100.00;100750.59;1450300;89;21370;-85
2023/08/15 02:30:17;;;;;;;6.77;5.00;;;;;;;17.25;100.00;100745.30;1434066;90;21347;-85
2023/08/15 02:32:44;;;;;;;7.90;5.67;;;;;;;17.19;100.00;100746.86;1448635;89;21398;-88
2023/08/15 02:35:13;;;;;;;10.30;5.33;;;;;;;17.13;100.00;100743.08;1451233;90;21481;-86
2023/08/15 02:37:39;;;;;;;10.67;5.87;;;;;;;17.13;100.00;100752.44;1449927;89;22419;-85
2023/08/15 02:40:09;;;;;;;6.83;5.03;;;;;;;17.10;100.00;100754.14;1444029;90;21436;-85
2023/08/15 02:42:35;;;;;;;9.55;5.65;;;;;;;17.06;100.00;100743.98;1449724;89;21384;-86
2023/08/15 02:45:02;;;;;;;6.23;5.07;;;;;;;17.01;100.00;100745.87;1446485;90;22434;-89
2023/08/15 02:47:28;;;;;;;8.30;6.67;;;;;;;17.01;100.00;100747.73;1431148;90;21295;-88
2023/08/15 02:49:54;;;;;;;9.17;5.83;;;;;;;16.96;100.00;100751.44;1430308;90;22382;-86
2023/08/15 02:52:20;;;;;;;6.77;4.87;;;;;;;16.90;100.00;100744.98;1451465;90;21370;-88
2023/08/15 02:54:47;;;;;;;8.10;4.60;;;;;;;16.85;100.00;100750.03;1446154;89;21412;-87
2023/08/15 02:57:13;;;;;;;4.53;3.77;;;;;;;16.80;100.00;100754.59;1453899;90;22315;-88
2023/08/15 02:59:39;;;;;;;4.37;3.80;;;;;;;16.73;100.00;100744.77;1441031;90;21458;-88
2023/08/15 03:02:05;;;;;;;8.40;5.23;;;;;;;16.64;100.00;100742.66;1441461;89;21815;-87
2023/08/15 03:04:32;;;;;;;7.37;4.93;;;;;;;16.64;100.00;100745.34;1440496;90;22264;-88
2023/08/15 03:06:58;;;;;;;5.50;4.73;;;;;;;16.63;100.00;100744.52;1449267;89;21377;-89
2023/08/15 03:09:24;;;;;;;8.83;4.70;;;;;;;16.61;100.00;100748.38;1448166;90;21525;-86
2023/08/15 03:11:50;;;;;;;4.60;3.97;;;;;;;16.61;100.00;100753.72;1446067;90;21444;-87
2023/08/15 03:14:16;;;;;;;10.70;4.23;;;;;;;16.65;100.00;100753.16;1441085;90;21378;-89
2023/08/15 03:16:43;;;;;;;4.53;4.13;;;;;;;16.65;100.00;100759.84;1446084;90;21296;-88
2023/08/15 03:19:09;;;;;;;8.27;4.37;;;;;;;16.63;100.00;100761.88;1450489;90;21428;-88
2023/08/15 03:21:35;;;;;;;4.70;4.23;;;;;;;16.59;100.00;100765.08;1451018;89;21391;-88
2023/08/15 03:24:01;;;;;;;5.13;4.63;;;;;;;16.54;100.00;100770.94;1451812;90;21362;-88
2023/08/15 03:26:28;;;;;;;8.03;5.30;;;;;;;16.51;100.00;100771.30;1450561;89;21362;-86
2023/08/15 03:28:56;;;;;;;11.10;5.43;;;;;;;16.56;100.00;100770.78;1448616;89;21363;-85
2023/08/15 03:31:23;;;;;;;6.00;5.03;;;;;;;16.58;100.00;100768.27;1443734;89;21376;-86
2023/08/15 03:33:49;;;;;;;6.63;5.17;;;;;;;16.61;100.00;100772.42;1448450;89;22455;-87
2023/08/15 03:36:18;;;;;;;6.53;5.80;;;;;;;16.63;100.00;100770.38;1441341;90;21576;-85
2023/08/15 03:38:44;;;;;;;10.20;5.73;;;;;;;16.66;100.00;100767.38;1451904;89;21391;-86
2023/08/15 03:41:11;;;;;;;7.87;5.80;;;;;;;16.67;100.00;100769.03;1447466;89;21393;-86
2023/08/15 03:43:37;;;;;;;10.93;6.23;;;;;;;16.69;100.00;100771.03;1451488;89;21414;-87
2023/08/15 03:46:05;;;;;;;12.17;6.33;;;;;;;16.72;100.00;100772.52;1446707;89;21979;-88
2023/08/15 03:48:32;;;;;;;10.17;6.77;;;;;;;16.77;100.00;100773.64;1456745;89;21429;-87
2023/08/15 03:51:00;;;;;;;7.63;6.40;;;;;;;16.77;100.00;100775.48;1450362;89;21334;-86
2023/08/15 03:53:27;;;;;;;12.37;7.87;;;;;;;16.79;100.00;100778.82;1451623;90;21635;-86
2023/08/15 03:55:54;;;;;;;10.73;7.60;;;;;;;16.80;100.00;100773.31;1434779;90;21303;-88
2023/08/15 03:58:22;;;;;;;7.67;6.03;;;;;;;16.84;100.00;100772.44;1453644;90;21444;-87
2023/08/15 04:00:49;;;;;;;9.23;6.20;;;;;;;16.87;100.00;100774.75;1442521;89;21318;-87
2023/08/15 04:03:16;;;;;;;14.17;6.30;;;;;;;16.90;100.00;100773.05;1438061;90;21348;-88
2023/08/15 04:05:47;;;;;;;11.93;5.70;;;;;;;16.93;100.00;100768.67;1445508;90;21311;-86
2023/08/15 04:08:14;;;;;;;;;;;;;;;16.91;100.00;100778.20;1457121;90;21517;-87
2023/08/15 04:10:40;;;;;;;11.33;5.87;;;;;;;16.93;100.00;100779.37;1447539;90;20279;-87
2023/08/15 04:13:08;;;;;;;12.33;5.77;;;;;;;16.94;100.00;100775.67;1448751;89;21325;-87
2023/08/15 04:15:36;;;;;;;8.77;5.50;;;;;;;16.96;100.00;100770.16;1445524;90;21556;-88
2023/08/15 04:18:05;;;;;;;10.20;7.27;;;;;;;17.01;100.00;100773.95;1454893;90;22220;-87
2023/08/15 04:20:31;;;;;;;12.13;5.77;;;;;;;17.03;100.00;100773.27;1446003;89;21428;-86
2023/08/15 04:22:57;;;;;;;8.70;6.33;;;;;;;17.06;100.00;100773.39;1453163;89;21451;-85
2023/08/15 04:25:25;;;;;;;7.40;6.40;;;;;;;17.07;100.00;100769.21;1453506;90;22263;-87
2023/08/15 04:27:51;;;;;;;7.70;6.93;;;;;;;17.14;100.00;100766.12;1444054;90;22440;-87
2023/08/15 04:30:18;;;;;;;12.60;6.07;;;;;;;17.22;100.00;100778.59;1435158;90;21468;-87
2023/08/15 04:32:47;;;;;;;9.97;6.50;;;;;;;17.28;100.00;100779.70;1450675;89;21326;-88
2023/08/15 04:35:14;;;;;;;15.77;6.43;;;;;;;17.35;100.00;100781.98;1436938;90;21554;-87
2023/08/15 04:37:41;;;;;;;10.33;6.70;;;;;;;17.42;100.00;100789.59;1455486;89;21540;-88
2023/08/15 04:40:12;;;;;;;11.80;5.87;;;;;;;17.50;100.00;100788.68;1459682;90;21457;-87
2023/08/15 04:42:40;;;;;;;8.67;5.93;;;;;;;17.60;100.00;100794.57;1452106;89;21567;-86
2023/08/15 04:45:08;;;;;;;12.10;6.27;;;;;;;17.68;100.00;100797.16;1437113;89;21563;-88
2023/08/15 04:47:35;;;;;;;13.37;6.20;;;;;;;17.79;100.00;100791.89;1441590;89;22242;-87
2023/08/15 04:50:02;;;;;;;7.20;6.20;;;;;;;17.85;100.00;100793.81;1454207;89;21429;-87
2023/08/15 04:52:28;;;;;;;7.50;6.43;;;;;;;17.95;100.00;100800.20;1455083;89;21514;-86
2023/08/15 04:54:54;;;;;;;8.50;5.90;;;;;;;18.04;100.00;100800.45;1452911;89;21326;-86
2023/08/15 04:57:21;;;;;;;7.53;5.40;;;;;;;18.16;100.00;100800.80;1433965;90;21385;-85
2023/08/15 04:59:47;;;;;;;12.68;6.70;;;;;;;18.23;100.00;100797.67;1449623;89;21564;-86
2023/08/15 05:02:13;;;;;;;14.93;6.60;;;;;;;18.32;100.00;100801.06;1415382;90;21586;-87
2023/08/15 05:04:40;;;;;;;9.30;6.30;;;;;;;18.40;100.00;100813.02;1442553;89;21310;-86
2023/08/15 05:07:06;;;;;;;9.80;6.67;;;;;;;18.51;100.00;100813.03;1440952;89;21889;-86
2023/08/15 05:09:32;;;;;;;15.45;7.50;;;;;;;18.60;100.00;100815.39;1456356;89;21384;-85
2023/08/15 05:11:58;;;;;;;10.60;8.10;;;;;;;18.73;100.00;100820.06;1451920;89;22293;-85
2023/08/15 05:14:25;;;;;;;11.28;7.17;;;;;;;18.80;100.00;100820.98;1449120;89;21385;-84
2023/08/15 05:16:52;;;;;;;15.83;8.53;;;;;;;18.89;100.00;100822.50;1446163;90;21592;-86
2023/08/15 05:19:18;;;;;;;12.75;8.85;;;;;;;19.01;100.00;100815.28;1448316;89;22323;-85
2023/08/15 05:21:44;;;;;;;11.25;7.08;;;;;;;19.07;100.00;100824.71;1453974;89;21487;-86
2023/08/15 05:24:11;;;;;;;12.05;7.92;;;;;;;19.15;100.00;100818.39;1433050;90;21384;-86
2023/08/15 05:26:37;;;;;;;8.25;6.58;;;;;;;19.21;100.00;100816.78;1447833;89;22285;-86
2023/08/15 05:29:03;;;;;;;14.07;7.22;;;;;;;19.29;100.00;100814.78;1438089;90;21332;-84
2023/08/15 05:31:29;;;;;;;14.58;7.20;;;;;;;19.38;100.00;100827.02;1457085;90;21392;-87
2023/08/15 05:33:55;;;;;;;15.83;7.58;;;;;;;19.47;100.00;100829.56;1451184;89;21325;-85
2023/08/15 05:36:22;;;;;;;16.52;7.58;;;;;;;19.61;100.00;100832.12;1449884;89;22397;-87
2023/08/15 05:38:49;;;;;;;15.30;8.15;;;;;;;19.74;100.00;100831.42;1445785;90;22011;-87
2023/08/15 05:41:16;;;;;;;20.40;7.12;;;;;;;19.73;100.00;100831.09;1444958;90;22264;-84
2023/08/15 05:43:42;;;;;;;11.57;7.17;;;;;;;19.79;100.00;100826.79;1442603;90;22068;-86
2023/08/15 05:46:08;;;;;;;11.57;7.60;;;;;;;19.84;100.00;100824.34;1427205;90;21422;-87
2023/08/15 05:48:37;;;;;;;12.85;6.97;;;;;;;19.96;100.00;100815.20;1445102;90;21473;-84
2023/08/15 05:51:03;;;;;;;10.20;7.00;;;;;;;20.04;100.00;100818.55;1424962;90;22323;-85
2023/08/15 05:53:29;;;;;;;12.25;6.67;;;;;;;20.19;100.00;100813.53;1443415;90;22605;-90
2023/08/15 05:55:55;;;;;;;9.10;6.83;;;;;;;20.32;100.00;100813.59;1425832;90;21354;-88
2023/08/15 05:58:21;;;;;;;12.98;7.95;;;;;;;20.40;100.00;100808.53;1443459;90;21480;-87
2023/08/15 06:00:47;;;;;;;16.23;7.40;;;;;;;20.54;100.00;100810.25;1443339;90;21422;-89
2023/08/15 06:03:14;;;;;;;13.65;7.40;;;;;;;20.62;100.00;100812.75;1429143;90;22987;-89
2023/08/15 06:05:40;;;;;;;14.38;6.42;;;;;;;20.76;100.00;100803.37;1427294;90;22278;-87
2023/08/15 06:08:06;;;;;;;8.88;6.95;;;;;;;20.91;100.00;100810.72;1393459;93;21325;-88
2023/08/15 06:10:32;;;;;;;11.97;7.10;;;;;;;21.01;100.00;100799.04;1378796;93;21408;-91
2023/08/15 06:12:58;;;;;;;11.53;6.47;;;;;;;21.17;100.00;100808.53;1381897;93;21488;-90
2023/08/15 06:15:25;;;;;;;8.20;6.42;;;;;;;21.28;100.00;100807.09;1392333;93;21385;-90
2023/08/15 06:17:51;;;;;;;11.50;7.83;;;;;;;21.30;100.00;100809.06;1442497;90;21596;-84
2023/08/15 06:20:17;;;;;;;9.60;6.95;;;;;;;21.41;100.00;100813.84;1441702;90;23038;-83
2023/08/15 06:22:43;;;;;;;11.73;6.97;;;;;;;21.49;100.00;100813.63;1427450;90;21414;-85
2023/08/15 06:25:17;;;;;;;12.90;6.35;;;;;;;21.65;100.00;100814.20;1447036;90;21473;-84
2023/08/15 06:27:44;;;;;;;11.28;6.95;;;;;;;21.76;100.00;100813.55;1437073;90;21429;-84
2023/08/15 06:30:16;;;;;;;12.37;6.67;;;;;;;21.85;100.00;100800.97;1445651;90;21528;-85
2023/08/15 06:32:45;;;;;;;10.03;6.65;;;;;;;21.84;100.00;100803.37;1442797;90;21444;-82
2023/08/15 06:35:11;;;;;;;13.88;5.97;;;;;;;21.98;100.00;100799.27;1445774;90;21363;-81
2023/08/15 06:37:38;;;;;;;11.03;6.25;;;;;;;22.16;100.00;100802.63;1446119;90;21612;-84
2023/08/15 06:40:07;;;;;;;13.45;6.10;;;;;;;22.36;100.00;100805.25;1435056;90;21664;-84
2023/08/15 06:42:33;;;;;;;8.67;6.43;;;;;;;22.53;100.00;100805.05;1452621;89;21406;-85
2023/08/15 06:45:11;;;;;;;17.25;6.60;;;;;;;22.68;100.00;100808.78;1447587;89;21392;-85
2023/08/15 06:47:38;;;;;;;7.97;5.85;;;;;;;22.75;100.00;100809.55;1531459;89;21341;-82
2023/08/15 06:50:06;;;;;;;9.28;6.25;;;;;;;22.92;100.00;100812.01;1375819;90;21215;-83
2023/08/15 06:52:32;;;;;;;8.40;6.12;;;;;;;22.95;100.00;100810.25;1437684;89;21391;-83
2023/08/15 06:54:59;;;;;;;13.20;5.80;;;;;;;23.04;100.00;100815.38;1448253;89;22491;-82
2023/08/15 06:57:25;;;;;;;8.73;6.00;;;;;;;23.18;100.00;100814.22;1430138;90;22345;-85
2023/08/15 06:59:51;;;;;;;13.50;5.55;;;;;;;23.30;100.00;100808.38;1449509;89;21747;-83
2023/08/15 07:02:18;;;;;;;9.75;6.70;;;;;;;23.41;100.00;100802.78;1445663;90;22471;-86
2023/08/15 07:04:47;;;;;;;7.90;5.90;;;;;;;23.54;100.00;100809.94;1448934;89;21460;-86
2023/08/15 07:07:12;;;;;;;12.98;5.42;;;;;;;23.71;100.00;100804.77;1450821;89;22412;-85
2023/08/15 07:09:38;;;;;;;11.43;5.78;;;;;;;23.91;100.00;100797.79;1432455;90;21391;-85
2023/08/15 07:12:05;;;;;;;11.05;5.80;;;;;;;24.08;100.00;100800.17;1453417;89;21383;-85
2023/08/15 07:14:33;;;;;;;9.88;5.78;;;;;;;24.23;100.00;100792.50;1449030;89;21450;-81
2023/08/15 07:17:00;;;;;;;13.95;6.20;;;;;;;24.38;100.00;100795.31;1448495;89;21347;-81
2023/08/15 07:19:26;;;;;;;13.38;6.22;;;;;;;24.45;100.00;100787.95;1375538;90;22154;-80
2023/08/15 07:21:52;;;;;;;11.03;5.72;;;;;;;24.58;100.00;100786.94;1363642;91;21267;-81
2023/08/15 07:24:18;;;;;;;13.03;5.85;;;;;;;24.68;100.00;100785.30;1376553;89;21422;-83
2023/08/15 07:26:45;;;;;;;11.25;5.87;;;;;;;24.74;100.00;100777.62;1377576;90;22096;-84
2023/08/15 07:29:12;;;;;;;6.92;4.58;;;;;;;24.86;100.00;100777.64;1446701;89;21348;-83
2023/08/15 07:31:38;;;;;;;9.90;5.70;;;;;;;24.96;100.00;100785.17;1452765;90;22457;-86
2023/08/15 07:34:05;;;;;;;8.95;5.83;;;;;;;25.07;100.00;100784.89;1451017;89;21878;-82
2023/08/15 07:36:31;;;;;;;10.25;6.60;;;;;;;25.11;100.00;100777.94;1452187;90;21655;-83
2023/08/15 07:38:57;;;;;;;8.50;5.45;;;;;;;25.20;100.00;100777.40;1450664;90;21477;-84
2023/08/15 07:41:24;;;;;;;10.25;6.10;;;;;;;25.33;100.00;100781.73;1444059;89;21451;-85
2023/08/15 07:43:50;;;;;;;6.85;5.58;;;;;;;25.47;100.00;100780.15;1454660;90;22331;-85
2023/08/15 07:46:16;;;;;;;14.50;4.97;;;;;;;25.58;100.00;100782.02;1453345;89;21325;-84
2023/08/15 07:48:43;;;;;;;7.40;4.60;;;;;;;25.58;100.00;100780.13;1450125;90;21540;-85
2023/08/15 07:51:10;;;;;;;8.90;5.58;;;;;;;25.69;100.00;100778.97;1438096;90;22493;-84
2023/08/15 07:53:37;;;;;;;15.10;5.35;;;;;;;25.86;100.00;100773.94;1451796;90;21554;-85
2023/08/15 07:56:03;;;;;;;9.20;4.85;;;;;;;26.04;100.00;100779.73;1451243;89;21483;-85
2023/08/15 07:58:33;;;;;;;7.33;4.90;;;;;;;26.19;100.00;100777.03;1448602;89;21392;-85
2023/08/15 08:00:58;;;;;;;7.80;4.90;;;;;;;26.27;100.00;100776.64;1447312;90;22574;-85
2023/08/15 08:03:24;;;;;;;7.45;4.90;;;;;;;26.41;100.00;100773.88;1451141;90;21281;-85
2023/08/15 08:05:50;;;;;;;6.22;4.37;;;;;;;26.40;100.00;100761.94;1445847;90;21406;-84
2023/08/15 08:08:17;;;;;;;5.47;4.20;;;;;;;26.55;100.00;100768.47;1440673;90;21399;-84
2023/08/15 08:10:43;;;;;;;8.95;5.00;;;;;;;26.70;100.00;100764.36;1449374;89;21547;-85
2023/08/15 08:13:12;;;;;;;7.80;4.92;;;;;;;26.76;100.00;100766.94;1437326;90;21377;-86
2023/08/15 08:15:38;;;;;;;9.38;4.67;;;;;;;26.84;100.00;100767.58;1450563;89;21383;-85
2023/08/15 08:18:05;;;;;;;8.50;4.95;;;;;;;26.89;100.00;100762.23;1444741;89;21579;-84
2023/08/15 08:20:32;;;;;;;10.55;4.47;;;;;;;26.97;100.00;100767.25;1458272;90;21548;-84
2023/08/15 08:22:58;;;;;;;9.08;5.12;;;;;;;27.01;100.00;100769.20;1443435;90;22255;-84
2023/08/15 08:25:25;;;;;;;6.22;4.42;;;;;;;27.00;100.00;100762.69;1451401;90;21466;-84
2023/08/15 08:27:51;;;;;;;6.62;4.37;;;;;;;27.14;100.00;100763.98;1449782;89;21377;-83
2023/08/15 08:30:20;;;;;;;11.43;4.35;;;;;;;27.33;100.00;100763.17;1448742;90;22471;-85
2023/08/15 08:32:46;;;;;;;8.67;5.30;;;;;;;27.40;100.00;100760.30;1439311;89;21436;-85
2023/08/15 08:35:16;;;;;;;10.98;4.80;;;;;;;27.56;100.00;100765.38;1447936;89;22390;-84
2023/08/15 08:37:45;;;;;;;7.37;4.80;;;;;;;27.70;100.00;100757.13;1446675;90;22523;-85
2023/08/15 08:40:12;;;;;;;10.85;4.53;;;;;;;27.91;100.00;100756.89;1447592;90;21472;-85
2023/08/15 08:42:42;;;;;;;11.22;4.95;;;;;;;28.08;100.00;100748.61;1444083;90;21400;-84
2023/08/15 08:45:12;;;;;;;14.83;5.87;;;;;;;28.13;100.00;100745.41;1446203;90;22323;-85
2023/08/15 08:47:40;;;;;;;11.05;4.67;;;;;;;28.21;100.00;100754.20;1424131;90;21355;-86
2023/08/15 08:50:11;;;;;;;8.20;5.00;;;;;;;28.25;100.00;100754.77;1447555;90;21405;-86
2023/08/15 08:52:42;;;;;;;8.90;4.15;;;;;;;28.43;100.00;100758.27;1447877;90;21341;-85
2023/08/15 08:55:09;;;;;;;8.73;4.90;;;;;;;28.54;100.00;100759.45;1444369;90;21326;-85
2023/08/15 08:57:37;;;;;;;7.17;4.40;;;;;;;28.63;100.00;100757.59;1443835;90;21353;-84
2023/08/15 09:00:11;;;;;;;9.70;4.37;;;;;;;28.58;100.00;100754.30;1453882;90;22271;-85
2023/08/15 09:02:35;;;;;;;8.20;4.60;;;;;;;28.75;100.00;100762.34;1439974;90;21643;-85
2023/08/15 09:05:07;;;;;;;9.55;4.87;;;;;;;28.93;100.00;100764.64;1442635;89;22367;-84
2023/08/15 09:07:35;;;;;;;9.03;4.80;;;;;;;28.98;100.00;100753.79;1442558;90;21332;-86
2023/08/15 09:10:02;;;;;;;8.53;4.42;;;;;;;29.05;100.00;100758.22;1445481;90;21422;-85
2023/08/15 09:12:36;;;;;;;9.10;4.65;;;;;;;29.22;100.00;100759.69;1443982;90;21305;-85
2023/08/15 09:15:10;;;;;;;10.90;4.40;;;;;;;29.40;100.00;100757.59;1443416;90;21550;-85
2023/08/15 09:17:38;;;;;;;6.95;4.17;;;;;;;29.58;100.00;100755.79;1448243;90;21362;-84
2023/08/15 09:20:14;;;;;;;11.60;4.55;;;;;;;29.76;99.86;100756.44;1448442;90;21510;-84
2023/08/15 09:22:46;;;;;;;11.22;4.28;;;;;;;29.84;98.87;100754.55;1443699;90;21311;-84
2023/08/15 09:25:17;;;;;;;15.98;4.75;;;;;;;29.98;99.32;100755.69;1446273;90;21407;-83
2023/08/15 09:27:44;;;;;;;11.60;4.12;;;;;;;30.06;98.45;100752.41;1446101;90;21297;-85
2023/08/15 09:30:14;;;;;;;6.28;4.25;;;;;;;30.19;98.50;100756.55;1432977;90;21296;-85
2023/08/15 09:32:41;;;;;;;;;;;;;;;30.29;97.26;100750.30;1439904;90;22354;-85
2023/08/15 09:35:10;;;;;;;13.50;4.42;;;;;;;30.33;97.17;100756.88;1441802;90;20270;-84
2023/08/15 09:37:45;;;;;;;9.30;4.10;;;;;;;30.41;95.47;100758.22;1439604;90;21614;-83
2023/08/15 09:40:18;;;;;;;8.38;4.70;;;;;;;30.44;95.18;100758.52;1446907;90;22257;-83
2023/08/15 09:42:45;;;;;;;7.85;4.00;;;;;;;30.51;94.60;100760.42;1446779;90;21377;-83
2023/08/15 09:45:16;;;;;;;12.03;3.98;;;;;;;30.57;92.58;100759.33;1443826;90;21391;-83
2023/08/15 09:47:44;;;;;;;18.42;4.90;;;;;;;30.69;92.37;100759.60;1449732;90;21340;-84
2023/08/15 09:50:13;;;;;;;11.95;4.78;;;;;;;30.77;92.85;100768.62;1445826;90;21524;-84
2023/08/15 09:52:42;;;;;;;13.68;4.12;;;;;;;30.89;91.68;100761.53;1442815;90;21422;-83
2023/08/15 09:55:14;;;;;;;7.05;4.28;;;;;;;31.00;92.68;100761.23;1443452;90;21384;-83
2023/08/15 09:57:43;;;;;;;13.08;4.25;;;;;;;31.07;92.07;100757.40;1445065;90;21436;-84
2023/08/15 10:00:12;;;;;;;6.47;3.70;;;;;;;31.15;90.84;100752.19;1451340;90;22456;-85
2023/08/15 10:02:54;;;;;;;6.65;4.37;;;;;;;31.03;88.02;100744.84;1443219;90;21399;-85
2023/08/15 10:05:23;;;;;;;6.62;3.80;;;;;;;31.08;88.73;100744.02;1446622;90;21532;-86
2023/08/15 10:07:50;;;;;;;6.30;4.05;;;;;;;31.17;88.46;100741.80;1448957;90;21444;-85
2023/08/15 10:10:18;;;;;;;9.93;4.42;;;;;;;31.27;87.29;100746.41;1448428;90;21406;-85
2023/08/15 10:12:47;;;;;;;6.95;3.67;;;;;;;31.38;87.35;100748.60;1447307;90;21348;-85
2023/08/15 10:15:13;;;;;;;7.17;3.95;;;;;;;31.46;86.78;100744.73;1443677;90;21370;-84
2023/08/15 10:17:40;;;;;;;3.95;3.22;;;;;;;31.60;85.77;100746.88;1441476;90;21444;-85
2023/08/15 10:20:10;;;;;;;9.55;3.65;;;;;;;31.73;85.32;100742.15;1430483;90;22432;-85
2023/08/15 10:22:39;;;;;;;7.17;3.95;;;;;;;31.82;84.87;100737.75;1448982;90;21569;-85
2023/08/15 10:25:35;;;;;;;5.53;3.37;;;;;;;31.80;84.79;100731.73;1447266;90;21452;-85
2023/08/15 10:28:10;;;;;;;6.55;3.50;;;;;;;31.86;85.57;100725.13;1448591;90;21362;-85
2023/08/15 10:30:50;;;;;;;10.18;3.47;;;;;;;31.91;86.16;100722.39;1435907;90;21568;-86
2023/08/15 10:33:20;;;;;;;7.20;3.70;;;;;;;31.88;83.60;100718.83;1442762;90;21384;-85
2023/08/15 10:36:00;;;;;;;6.58;3.08;;;;;;;31.90;84.69;100722.11;1452505;90;21392;-85
2023/08/15 10:38:35;;;;;;;9.13;3.83;;;;;;;31.77;83.75;100717.25;1444903;90;21384;-84
2023/08/15 10:41:15;;;;;;;8.90;3.65;;;;;;;31.81;84.72;100716.94;1444220;90;22316;-86
2023/08/15 10:43:50;;;;;;;;;;;;;;;31.91;74.56;100720.22;1439913;90;22445;-84
2023/08/15 10:46:20;;;;;;;7.15;3.75;;;;;;;31.99;75.03;100722.88;1446102;90;20583;-85
2023/08/15 10:48:54;;;;;;;9.18;3.55;;;;;;;32.10;75.04;100717.61;1444918;90;21430;-86
2023/08/15 10:51:25;;;;;;;8.58;4.00;;;;;;;32.24;74.46;100722.71;1444489;90;21506;-84
2023/08/15 10:53:57;;;;;;;5.87;3.50;;;;;;;32.31;72.17;100721.84;1443791;90;21362;-86
2023/08/15 10:56:28;;;;;;;8.10;3.45;;;;;;;32.48;72.54;100721.44;1444728;90;21370;-85
2023/08/15 10:58:55;;;;;;;10.88;4.15;;;;;;;32.63;71.97;100716.41;1451090;90;21369;-86
2023/08/15 11:01:25;;;;;;;5.37;3.33;;;;;;;32.63;71.06;100708.71;1442515;90;21591;-86
2023/08/15 11:03:55;;;;;;;6.50;3.60;;;;;;;32.58;70.79;100717.81;1440397;90;21407;-85
2023/08/15 11:06:22;;;;;;;8.48;3.62;;;;;;;32.66;70.66;100713.09;1434306;90;21459;-84
2023/08/15 11:08:52;;;;;;;9.03;4.00;;;;;;;32.71;70.62;100721.23;1442001;90;21466;-86
2023/08/15 11:11:19;;;;;;;10.85;3.62;;;;;;;32.77;69.72;100717.36;1442042;90;21540;-86
2023/08/15 11:13:49;;;;;;;5.95;3.52;;;;;;;32.83;70.98;100717.29;1440379;90;21363;-85
2023/08/15 11:16:19;;;;;;;7.58;3.95;;;;;;;32.83;68.79;100715.92;1439607;90;21347;-86
2023/08/15 11:18:47;;;;;;;11.15;3.52;;;;;;;32.90;61.07;100716.41;1447439;90;21436;-86
2023/08/15 11:21:18;;;;;;;9.53;4.03;;;;;;;32.93;57.97;100716.64;1444448;90;21480;-86